createdAt,value
2023-01-29T01:21:10.998Z,33.38
2023-01-29T01:23:41.920Z,25.40
2023-01-29T01:26:12.734Z,31.20
2023-01-29T01:28:43.176Z,25.00
2023-01-29T01:31:14.599Z,27.23
2023-01-29T01:33:45.368Z,27.77
2023-01-29T01:36:17.341Z,28.83
2023-01-29T01:38:46.753Z,27.42
2023-01-29T01:41:18.534Z,36.28
2023-01-29T01:43:52.897Z,32.90
2023-01-29T01:46:23.526Z,33.30
2023-01-29T01:48:58.485Z,33.22
2023-01-29T01:51:32.195Z,30.38
2023-01-29T01:56:41.004Z,29.17
2023-01-29T01:59:15.994Z,26.77
2023-01-29T02:01:51.506Z,28.65
2023-01-29T02:04:42.306Z,32.03
2023-01-29T02:07:34.444Z,24.77
2023-01-29T02:10:11.015Z,26.60
2023-01-29T02:12:40.676Z,30.70
2023-01-29T02:15:11.657Z,26.08
2023-01-29T02:17:42.014Z,27.27
2023-01-29T02:20:19.718Z,27.55
2023-01-29T02:23:09.187Z,26.20
2023-01-29T02:26:20.276Z,27.83
2023-01-29T02:28:56.249Z,31.52
2023-01-29T02:31:36.849Z,27.85
2023-01-29T02:34:18.529Z,26.02
2023-01-29T02:36:54.621Z,29.58
2023-01-29T02:39:33.141Z,32.17
2023-01-29T02:42:11.760Z,29.63
2023-01-29T02:44:49.119Z,30.65
2023-01-29T02:47:23.615Z,29.98
2023-01-29T02:50:00.245Z,26.88
2023-01-29T02:52:39.381Z,31.98
2023-01-29T02:55:14.074Z,28.67
2023-01-29T02:57:48.263Z,32.40
2023-01-29T03:00:22.801Z,25.17
2023-01-29T03:03:00.044Z,26.00
2023-01-29T03:05:36.497Z,27.13
2023-01-29T03:08:10.652Z,26.08
2023-01-29T03:10:45.429Z,29.75
2023-01-29T03:13:19.878Z,30.58
2023-01-29T03:16:01.553Z,34.58
2023-01-29T03:18:46.041Z,29.90
2023-01-29T03:21:39.332Z,29.08
2023-01-29T03:24:30.483Z,30.00
2023-01-29T03:27:22.583Z,33.83
2023-01-29T03:30:13.656Z,32.05
2023-01-29T03:33:19.732Z,29.65
2023-01-29T03:35:58.733Z,33.08
2023-01-29T03:38:32.307Z,28.60
2023-01-29T03:41:10.701Z,28.30
2023-01-29T03:43:49.676Z,27.48
2023-01-29T03:46:29.256Z,32.67
2023-01-29T03:49:08.727Z,27.38
2023-01-29T03:51:44.286Z,29.88
2023-01-29T03:54:21.872Z,32.17
2023-01-29T03:57:01.561Z,29.20
2023-01-29T03:59:41.213Z,32.83
2023-01-29T04:02:37.174Z,29.05
2023-01-29T04:05:20.562Z,33.30
2023-01-29T04:08:13.683Z,28.20
2023-01-29T04:10:46.952Z,27.70
2023-01-29T04:13:20.349Z,35.58
2023-01-29T04:15:57.602Z,31.52
2023-01-29T04:18:48.003Z,31.40
2023-01-29T04:21:20.509Z,34.30
2023-01-29T04:23:50.776Z,32.97
2023-01-29T04:26:30.359Z,30.95
2023-01-29T04:29:30.265Z,28.80
2023-01-29T04:32:12.461Z,31.85
2023-01-29T04:34:58.598Z,33.60
2023-01-29T04:37:38.243Z,30.23
2023-01-29T04:40:27.150Z,29.70
2023-01-29T04:43:09.459Z,30.65
2023-01-29T04:45:57.095Z,32.35
2023-01-29T04:48:41.031Z,31.75
2023-01-29T04:51:23.562Z,28.15
2023-01-29T04:54:08.702Z,30.98
2023-01-29T04:56:45.542Z,29.13
2023-01-29T04:59:21.923Z,30.25
2023-01-29T05:01:53.413Z,30.13
2023-01-29T05:04:25.524Z,26.30
2023-01-29T05:06:58.515Z,29.85
2023-01-29T05:09:29.959Z,28.70
2023-01-29T05:12:00.743Z,29.23
2023-01-29T05:14:32.193Z,27.60
2023-01-29T05:17:09.387Z,33.30
2023-01-29T05:19:39.241Z,28.88
2023-01-29T05:22:12.958Z,30.58
2023-01-29T05:24:44.642Z,33.78
2023-01-29T05:27:36.571Z,27.80
2023-01-29T05:30:07.584Z,33.75
2023-01-29T05:32:37.075Z,30.48
2023-01-29T05:35:07.400Z,31.45
2023-01-29T05:37:38.075Z,27.85
2023-01-29T05:40:11.573Z,34.80
2023-01-29T05:42:41.631Z,30.80
2023-01-29T05:45:12.079Z,37.58
2023-01-29T05:47:41.894Z,41.70
2023-01-29T05:50:12.555Z,32.03
2023-01-29T05:52:50.010Z,29.67
2023-01-29T05:55:24.242Z,33.00
2023-01-29T05:57:53.822Z,30.55
2023-01-29T06:00:24.531Z,31.10
2023-01-29T06:02:54.024Z,34.17
2023-01-29T06:05:24.008Z,32.90
2023-01-29T06:07:53.761Z,30.80
2023-01-29T06:10:25.200Z,35.47
2023-01-29T06:12:54.977Z,33.33
2023-01-29T06:15:26.615Z,34.92
2023-01-29T06:17:56.785Z,36.05
2023-01-29T06:20:27.006Z,29.15
2023-01-29T06:22:57.040Z,28.73
2023-01-29T06:25:28.054Z,31.20
2023-01-29T06:27:59.477Z,27.90
2023-01-29T06:30:29.599Z,29.25
2023-01-29T06:33:01.700Z,26.23
2023-01-29T06:35:32.404Z,28.45
2023-01-29T06:38:02.885Z,30.33
2023-01-29T06:40:34.296Z,31.85
2023-01-29T06:43:03.747Z,25.77
2023-01-29T06:45:33.641Z,33.22
2023-01-29T06:48:03.898Z,31.67
2023-01-29T06:50:34.613Z,29.40
2023-01-29T06:53:05.996Z,28.15
2023-01-29T06:55:37.859Z,29.40
2023-01-29T06:58:11.006Z,27.42
2023-01-29T07:00:41.578Z,29.52
2023-01-29T07:03:12.108Z,29.90
2023-01-29T07:05:43.042Z,29.80
2023-01-29T07:08:13.292Z,33.25
2023-01-29T07:10:47.323Z,34.70
2023-01-29T07:13:18.545Z,33.00
2023-01-29T07:15:49.765Z,29.75
2023-01-29T07:18:23.847Z,24.92
2023-01-29T07:20:56.544Z,30.35
2023-01-29T07:23:52.978Z,26.55
2023-01-29T07:26:49.066Z,32.45
2023-01-29T07:29:24.326Z,32.17
2023-01-29T07:31:57.404Z,26.50
2023-01-29T07:34:27.494Z,28.98
2023-01-29T07:36:57.620Z,34.72
2023-01-29T07:39:27.856Z,29.95
2023-01-29T07:41:59.138Z,31.23
2023-01-29T07:44:31.770Z,29.02
2023-01-29T07:47:01.585Z,29.38
2023-01-29T07:49:31.524Z,33.70
2023-01-29T07:52:01.552Z,28.52
2023-01-29T07:54:32.832Z,29.75
2023-01-29T07:57:03.932Z,30.25
2023-01-29T07:59:34.833Z,28.02
2023-01-29T08:02:05.956Z,37.03
2023-01-29T08:04:36.832Z,33.28
2023-01-29T08:07:07.126Z,32.63
2023-01-29T08:09:39.465Z,34.33
2023-01-29T08:12:10.573Z,31.77
2023-01-29T08:14:41.744Z,33.35
2023-01-29T08:17:14.888Z,32.70
2023-01-29T08:19:48.004Z,36.33
2023-01-29T08:22:20.824Z,35.83
2023-01-29T08:25:00.143Z,29.60
2023-01-29T08:27:38.883Z,31.45
2023-01-29T08:30:14.926Z,30.13
2023-01-29T08:32:45.814Z,34.15
2023-01-29T08:35:19.380Z,34.55
2023-01-29T08:37:58.815Z,34.83
2023-01-29T08:40:31.995Z,35.28
2023-01-29T08:43:11.387Z,37.72
2023-01-29T08:45:45.547Z,37.35
2023-01-29T08:48:17.031Z,29.02
2023-01-29T08:50:47.992Z,33.63
2023-01-29T10:13:48.816Z,29.75
2023-01-29T10:16:33.776Z,27.60
2023-01-29T10:19:14.113Z,29.45
2023-01-29T10:22:04.504Z,29.88
2023-01-29T10:24:49.252Z,26.27
2023-01-29T10:27:21.806Z,27.48
2023-01-29T10:29:55.663Z,28.67
2023-01-29T10:32:30.353Z,27.20
2023-01-29T10:35:06.529Z,26.00
2023-01-29T10:37:42.048Z,30.15
2023-01-29T10:40:21.734Z,31.58
2023-01-29T10:43:00.545Z,29.10
2023-01-29T10:45:40.627Z,33.72
2023-01-29T10:48:59.514Z,33.30
2023-01-29T10:51:53.077Z,26.55
2023-01-29T10:54:37.592Z,25.95
2023-01-29T10:57:16.349Z,28.67
2023-01-29T11:00:04.618Z,29.40
2023-01-29T11:02:36.229Z,27.80
2023-01-29T11:05:11.404Z,23.73
2023-01-29T11:07:40.871Z,25.13
2023-01-29T11:10:15.907Z,28.27
2023-01-29T11:12:49.351Z,24.35
2023-01-29T11:15:25.166Z,24.42
2023-01-29T11:18:10.579Z,24.17
2023-01-29T11:20:39.881Z,25.50
2023-01-29T11:23:27.551Z,24.10
2023-01-29T11:25:58.957Z,24.13
2023-01-29T11:28:39.525Z,22.67
2023-01-29T11:31:22.426Z,22.65
2023-01-29T11:34:05.364Z,22.13
2023-01-29T11:36:38.397Z,23.38
2023-01-29T11:39:19.428Z,21.67
2023-01-29T11:41:56.706Z,20.75
2023-01-29T11:44:37.118Z,20.58
2023-01-29T11:47:18.525Z,21.17
2023-01-29T11:49:53.909Z,18.42
2023-01-29T11:52:26.478Z,19.08
2023-01-29T11:55:02.468Z,19.00
2023-01-29T11:57:35.178Z,16.85
2023-01-29T12:00:09.980Z,18.88
2023-01-29T12:02:47.003Z,20.33
2023-01-29T12:05:21.643Z,18.45
2023-01-29T12:07:56.479Z,16.98
2023-01-29T12:10:39.460Z,20.08
2023-01-29T12:13:26.786Z,18.95
2023-01-29T12:16:14.770Z,23.00
2023-01-29T12:18:48.722Z,19.23
2023-01-29T12:23:59.523Z,22.92
2023-01-29T12:26:36.611Z,19.73
2023-01-29T12:29:26.791Z,18.27
2023-01-29T12:32:10.860Z,19.13
2023-01-29T12:37:23.970Z,14.45
2023-01-29T12:39:54.402Z,20.95
2023-01-29T12:42:25.948Z,17.25
2023-01-29T12:45:00.647Z,20.73
2023-01-29T12:47:34.847Z,18.10
2023-01-29T12:50:18.782Z,15.98
2023-01-29T12:52:53.232Z,18.95
2023-01-29T12:55:31.725Z,17.75
2023-01-29T12:58:04.247Z,24.20
2023-01-29T13:00:36.497Z,19.00
2023-01-29T13:03:16.342Z,19.67
2023-01-29T13:06:08.699Z,17.58
2023-01-29T13:08:50.340Z,16.90
2023-01-29T13:11:23.578Z,18.85
2023-01-29T13:13:58.012Z,16.30
2023-01-29T13:16:33.535Z,18.17
2023-01-29T13:19:07.202Z,20.27
2023-01-29T13:21:40.903Z,16.48
2023-01-29T13:24:17.386Z,17.65
2023-01-29T13:26:47.564Z,20.23
2023-01-29T13:29:24.669Z,16.02
2023-01-29T13:31:55.393Z,17.95
2023-01-29T13:34:28.464Z,20.55
2023-01-29T13:37:00.653Z,20.02
2023-01-29T13:39:34.461Z,20.33
2023-01-29T13:44:37.518Z,15.25
2023-01-29T13:47:09.324Z,17.17
2023-01-29T13:52:54.366Z,18.60
2023-01-29T13:55:34.419Z,17.13
2023-01-29T13:58:19.065Z,17.80
2023-01-29T14:00:54.897Z,21.40
2023-01-29T14:04:05.523Z,20.02
2023-01-29T14:06:52.578Z,16.58
2023-01-29T14:10:02.538Z,16.88
2023-01-29T14:12:44.578Z,15.90
2023-01-29T14:15:23.050Z,16.17
2023-01-29T14:18:25.791Z,18.83
2023-01-29T14:21:02.319Z,16.23
2023-01-29T14:23:40.516Z,17.73
2023-01-29T14:26:28.658Z,18.73
2023-01-29T14:29:06.554Z,19.33
2023-01-29T14:31:43.501Z,19.67
2023-01-29T14:34:21.662Z,17.75
2023-01-29T14:36:55.661Z,19.92
2023-01-29T14:39:36.998Z,18.70
2023-01-29T14:42:19.272Z,18.27
2023-01-29T14:45:00.290Z,20.27
2023-01-29T14:47:56.415Z,20.90
2023-01-29T14:50:47.595Z,19.27
2023-01-29T14:53:23.175Z,19.27
2023-01-29T14:55:57.599Z,18.60
2023-01-29T14:58:35.987Z,18.00
2023-01-29T15:01:24.094Z,21.85
2023-01-29T15:03:57.920Z,22.10
2023-01-29T15:09:15.051Z,19.27
2023-01-29T15:11:52.973Z,22.17
2023-01-29T15:14:34.898Z,20.77
2023-01-29T15:17:18.741Z,21.00
2023-01-29T15:19:49.995Z,22.75
2023-01-29T15:22:21.479Z,19.02
2023-01-29T15:25:07.571Z,20.55
2023-01-29T15:27:47.168Z,20.50
2023-01-29T15:30:19.765Z,18.75
2023-01-29T15:32:51.582Z,21.65
2023-01-29T15:35:32.840Z,16.92
2023-01-29T15:38:07.927Z,18.25
2023-01-29T15:40:37.707Z,17.88
2023-01-29T15:43:23.720Z,19.27
2023-01-29T15:45:55.201Z,17.40
2023-01-29T15:48:32.986Z,19.92
2023-01-29T15:51:05.306Z,20.02
2023-01-29T16:06:12.555Z,22.60
2023-01-29T18:10:01.840Z,17.42
2023-01-29T18:12:36.109Z,16.88
2023-01-29T18:17:38.587Z,16.45
2023-01-29T18:20:21.510Z,16.10
2023-01-29T18:23:11.734Z,14.63
2023-01-29T18:25:45.447Z,14.05
2023-01-29T18:28:26.404Z,15.65
2023-01-29T18:31:02.667Z,12.60
2023-01-29T18:33:37.294Z,16.73
2023-01-29T18:36:12.007Z,13.13
2023-01-29T18:38:45.092Z,13.45
2023-01-29T18:41:19.945Z,15.00
2023-01-29T18:43:52.956Z,15.07
2023-01-29T18:46:46.674Z,21.55
2023-01-29T18:49:19.379Z,15.98
2023-01-29T18:51:49.822Z,17.30
2023-01-29T18:54:27.576Z,18.98
2023-01-29T18:57:08.568Z,19.00
2023-01-29T18:59:58.471Z,17.88
2023-01-29T19:02:59.967Z,14.15
2023-01-29T19:05:37.725Z,15.77
2023-01-29T19:08:15.411Z,15.40
2023-01-29T19:11:35.089Z,15.73
2023-01-29T19:14:11.353Z,14.68
2023-01-29T19:16:47.126Z,12.00
2023-01-29T19:19:18.837Z,14.00
2023-01-29T19:22:10.711Z,13.32
2023-01-29T19:24:41.346Z,11.20
2023-01-29T19:27:34.597Z,9.10
2023-01-29T19:33:45.753Z,10.18
2023-01-29T19:36:15.839Z,10.15
2023-01-29T19:38:49.811Z,10.77
2023-01-29T19:41:26.391Z,10.25
2023-01-29T19:44:16.095Z,12.07
2023-01-29T19:46:50.869Z,9.15
2023-01-29T19:49:24.305Z,10.95
2023-01-29T19:51:59.195Z,10.68
2023-01-29T19:54:29.937Z,11.27
2023-01-29T19:57:02.901Z,8.95
2023-01-29T19:59:40.635Z,11.82
2023-01-29T20:02:16.307Z,9.95
2023-01-29T20:04:47.824Z,11.23
2023-01-29T20:07:24.330Z,11.73
2023-01-29T20:09:54.381Z,12.88
2023-01-29T20:12:28.599Z,14.05
2023-01-29T20:15:12.257Z,11.45
2023-01-29T20:17:46.891Z,14.50
2023-01-29T20:20:19.341Z,12.90
2023-01-29T20:22:55.222Z,14.23
2023-01-29T20:25:36.648Z,12.02
2023-01-29T20:28:09.110Z,11.52
2023-01-29T20:30:41.387Z,12.88
2023-01-29T20:33:45.102Z,12.35
2023-01-29T20:36:25.065Z,15.55
2023-01-29T20:38:58.155Z,14.50
2023-01-29T20:41:34.662Z,16.77
2023-01-29T20:44:14.448Z,12.10
2023-01-29T20:46:47.096Z,12.80
2023-01-29T20:49:34.420Z,14.63
2023-01-29T20:52:22.241Z,12.57
2023-01-29T20:55:34.129Z,14.90
2023-01-29T20:58:22.344Z,11.25
2023-01-29T21:01:09.018Z,13.45
2023-01-29T21:03:44.703Z,12.80
2023-01-29T21:06:23.122Z,12.55
2023-01-29T21:08:53.686Z,14.32
2023-01-29T21:11:44.202Z,13.90
2023-01-29T21:14:22.722Z,15.60
2023-01-29T21:19:32.120Z,14.35
2023-01-29T21:22:05.154Z,13.57
2023-01-29T21:24:37.273Z,13.67
2023-01-29T21:27:09.251Z,14.65
2023-01-29T21:29:39.093Z,11.60
2023-01-29T21:32:14.085Z,14.18
2023-01-29T21:34:45.917Z,12.77
2023-01-29T21:37:17.488Z,12.50
2023-01-29T21:42:40.877Z,11.13
2023-01-29T21:45:19.724Z,12.68
2023-01-29T21:47:49.554Z,13.88
2023-01-29T21:50:19.951Z,11.23
2023-01-29T21:52:58.312Z,12.82
2023-01-29T21:55:27.956Z,16.08
2023-01-29T21:57:57.935Z,12.80
2023-01-29T22:00:32.060Z,14.00
2023-01-29T22:03:01.571Z,14.50
2023-01-29T22:05:31.400Z,18.48
2023-01-29T22:08:02.911Z,13.20
2023-01-29T22:10:36.939Z,13.30
2023-01-29T22:13:10.932Z,11.15
